Lionhead Wind

Located on Lionhead Ridge near West Yellowstone. Use the nearest SNOTEL station for snow depth data: Madison Plateau. The data on this page is also available to view at dataGarrison.com.

Elevation
8775ft
Jump to table bottom
Date Time Temperature
deg F
RH, % Wind Speed Wind Gust Wind Direction
12/02/21 18:08 30.0 100 17 22 W - 279
12/02/21 17:08 28.7 100 21 26 W - 265
12/02/21 16:08 29.3 100 22 29 W - 263
12/02/21 15:08 29.8 100 24 33 W - 260
12/02/21 14:08 29.9 100 26 34 W - 264
12/02/21 13:08 29.9 100 27 37 W - 265
12/02/21 12:08 31.7 100 27 38 W - 272
12/02/21 11:08 31.1 100 20 26 W - 277
12/02/21 10:08 30.7 100 23 32 W - 268
12/02/21 09:08 29.6 100 23 29 W - 260
12/02/21 08:08 28.8 100 22 29 W - 261
12/02/21 07:08 29.1 100 22 32 W - 265
12/02/21 06:08 29.0 100 23 32 W - 271
12/02/21 05:08 30.6 100 18 33 W - 286
12/02/21 04:08 30.5 100 14 25 W - 292
12/02/21 03:08 31.2 100 10 25 NW - 298
12/02/21 02:08 31.3 100 13 28 NW - 293
12/02/21 01:08 30.5 100 10 29 NW - 293
12/02/21 00:08 30.6 100 14 28 W - 291
12/01/21 23:08 30.1 100 11 26 W - 288
12/01/21 22:08 30.2 100 20 29 W - 257
12/01/21 21:08 27.5 100 21 27 SW - 247
12/01/21 20:08 27.3 100 16 25 W - 260
12/01/21 19:08 29.7 100 13 25 W - 282
12/01/21 18:08 27.0 100 17 24 W - 251
12/01/21 17:08 26.6 100 14 24 W - 271
12/01/21 16:08 28.1 100 8 28 NW - 296
12/01/21 15:08 25.4 100 19 31 SW - 244
12/01/21 14:08 24.9 99 20 28 SW - 240
12/01/21 13:08 23.8 99 23 29 SW - 247
12/01/21 12:08 24.4 99 22 30 W - 253
12/01/21 11:08 23.6 99 21 26 SW - 247
12/01/21 10:08 22.2 99 20 30 SW - 246
12/01/21 09:08 21.6 99 23 32 W - 248
12/01/21 08:08 21.2 99 23 31 W - 251
12/01/21 07:08 21.2 99 18 24 W - 253
12/01/21 06:08 21.6 99 14 19 W - 254
12/01/21 05:08 21.8 99 19 27 W - 253
12/01/21 04:08 21.7 99 20 27 W - 251
12/01/21 03:08 22.1 99 24 31 W - 253
12/01/21 02:08 21.7 99 17 29 SW - 243
12/01/21 01:08 22.1 99 17 24 SW - 237
12/01/21 00:08 21.3 99 18 25 W - 256
11/30/21 23:08 21.0 98 17 24 SW - 243
11/30/21 22:08 21.2 99 7 17 S - 202
11/30/21 21:08 22.0 99 13 24 SW - 244
11/30/21 20:08 20.7 98 21 30 SW - 241
11/30/21 19:08 20.4 98 17 26 SW - 241
11/30/21 18:08 20.2 98 15 25 SW - 233
11/30/21 17:08 20.2 98 17 29 SW - 239